createdAt,value
2022-08-23T00:01:27.936Z,22.02
2022-08-23T00:03:59.829Z,22.04
2022-08-23T00:06:27.232Z,21.92
2022-08-23T00:08:54.299Z,21.90
2022-08-23T00:11:28.089Z,21.91
2022-08-23T00:13:55.513Z,21.84
2022-08-23T00:16:22.941Z,21.82
2022-08-23T00:18:50.200Z,21.79
2022-08-23T00:21:17.308Z,21.76
2022-08-23T00:23:44.170Z,21.72
2022-08-23T00:26:11.189Z,21.70
2022-08-23T00:28:38.114Z,21.69
2022-08-23T00:31:05.470Z,21.67
2022-08-23T00:33:32.580Z,21.65
2022-08-23T00:35:59.407Z,21.63
2022-08-23T00:38:31.785Z,21.62
2022-08-23T00:41:02.517Z,21.64
2022-08-23T00:43:56.293Z,21.63
2022-08-23T00:46:44.717Z,21.59
2022-08-23T00:49:12.921Z,21.54
2022-08-23T00:51:53.086Z,21.54
2022-08-23T00:54:22.348Z,21.32
2022-08-23T00:56:50.165Z,21.19
2022-08-23T00:59:17.300Z,21.04
2022-08-23T01:01:44.258Z,20.94
2022-08-23T01:04:12.373Z,20.85
2022-08-23T01:06:53.939Z,20.87
2022-08-23T01:09:22.300Z,20.75
2022-08-23T01:11:51.801Z,20.76
2022-08-23T01:14:31.288Z,20.69
2022-08-23T01:17:24.775Z,20.74
2022-08-23T01:20:00.563Z,20.65
2022-08-23T01:22:35.231Z,20.64
2022-08-23T01:25:08.954Z,20.66
2022-08-23T01:27:38.782Z,20.72
2022-08-23T01:30:08.083Z,20.75
2022-08-23T01:32:41.898Z,20.78
2022-08-23T01:35:09.272Z,20.75
2022-08-23T01:37:36.448Z,20.66
2022-08-23T01:40:05.018Z,20.67
2022-08-23T01:42:31.953Z,20.68
2022-08-23T01:44:58.764Z,20.68
2022-08-23T01:47:25.570Z,20.70
2022-08-23T01:49:52.368Z,20.72
2022-08-23T01:52:19.611Z,20.72
2022-08-23T01:54:46.792Z,20.70
2022-08-23T01:57:13.840Z,20.69
2022-08-23T01:59:42.671Z,20.68
2022-08-23T02:02:09.509Z,20.63
2022-08-23T02:04:36.340Z,20.62
2022-08-23T02:07:03.170Z,20.62
2022-08-23T02:09:32.062Z,20.60
2022-08-23T02:11:59.687Z,20.59
2022-08-23T02:14:26.518Z,20.54
2022-08-23T02:17:02.910Z,20.52
2022-08-23T02:19:32.561Z,20.52
2022-08-23T02:21:59.368Z,20.51
2022-08-23T02:24:26.488Z,20.49
2022-08-23T02:26:57.028Z,20.46
2022-08-23T02:29:25.629Z,20.37
2022-08-23T02:31:52.738Z,20.33
2022-08-23T02:34:20.653Z,20.31
2022-08-23T02:36:48.346Z,20.31
2022-08-23T02:39:19.396Z,20.32
2022-08-23T02:41:46.394Z,20.29
2022-08-23T02:44:14.153Z,20.28
2022-08-23T02:46:41.672Z,20.28
2022-08-23T02:49:08.830Z,20.27
2022-08-23T02:51:35.846Z,20.24
2022-08-23T02:54:02.878Z,20.25
2022-08-23T02:56:29.722Z,20.26
2022-08-23T02:58:56.507Z,20.25
2022-08-23T03:01:27.418Z,20.26
2022-08-23T03:03:54.366Z,20.23
2022-08-23T03:06:25.034Z,20.20
2022-08-23T03:08:53.628Z,20.30
2022-08-23T03:11:22.488Z,20.19
2022-08-23T03:13:50.726Z,20.16
2022-08-23T03:16:19.080Z,20.16
2022-08-23T03:18:46.900Z,20.16
2022-08-23T03:21:17.244Z,20.15
2022-08-23T03:23:44.202Z,20.15
2022-08-23T03:26:13.569Z,20.16
2022-08-23T03:28:42.216Z,20.15
2022-08-23T03:31:09.829Z,20.17
2022-08-23T03:33:37.335Z,20.17
2022-08-23T03:36:07.512Z,20.18
2022-08-23T03:38:34.921Z,20.19
2022-08-23T03:41:02.120Z,20.21
2022-08-23T03:43:29.163Z,20.24
2022-08-23T03:45:56.195Z,20.24
2022-08-23T03:48:23.338Z,20.28
2022-08-23T03:50:50.149Z,20.32
2022-08-23T03:53:24.168Z,20.34
2022-08-23T03:55:53.685Z,20.34
2022-08-23T03:58:21.789Z,20.37
2022-08-23T04:00:49.209Z,20.39
2022-08-23T04:03:16.419Z,20.44
2022-08-23T04:05:43.629Z,20.47
2022-08-23T04:08:11.710Z,20.50
2022-08-23T04:10:39.283Z,20.53
2022-08-23T04:13:09.392Z,20.57
2022-08-23T04:15:37.341Z,20.58
2022-08-23T04:18:05.085Z,20.61
2022-08-23T04:20:33.256Z,20.66
2022-08-23T04:23:00.186Z,20.71
2022-08-23T04:25:34.816Z,20.73
2022-08-23T04:28:02.904Z,20.76
2022-08-23T04:30:30.358Z,20.81
2022-08-23T04:32:57.429Z,20.82
2022-08-23T04:35:25.567Z,20.85
2022-08-23T04:37:53.560Z,20.86
2022-08-23T04:40:39.057Z,20.87
2022-08-23T04:43:07.044Z,20.90
2022-08-23T04:45:33.825Z,20.94
2022-08-23T04:48:00.807Z,20.98
2022-08-23T04:50:27.736Z,21.02
2022-08-23T04:52:54.569Z,21.07
2022-08-23T04:55:22.201Z,21.10
2022-08-23T04:57:49.090Z,21.16
2022-08-23T05:00:17.003Z,21.20
2022-08-23T05:02:43.921Z,21.23
2022-08-23T05:05:11.425Z,21.29
2022-08-23T05:07:42.839Z,21.33
2022-08-23T05:10:13.342Z,21.37
2022-08-23T05:12:40.913Z,21.40
2022-08-23T05:15:09.639Z,21.44
2022-08-23T05:17:37.091Z,21.51
2022-08-23T05:20:06.580Z,21.55
2022-08-23T05:22:34.413Z,21.59
2022-08-23T05:25:01.208Z,21.63
2022-08-23T05:27:28.235Z,21.65
2022-08-23T05:29:55.022Z,21.73
2022-08-23T05:32:22.900Z,21.77
2022-08-23T05:34:49.839Z,21.78
2022-08-23T05:37:17.870Z,21.82
2022-08-23T05:39:44.721Z,21.87
2022-08-23T05:42:16.153Z,21.96
2022-08-23T05:44:45.237Z,22.00
2022-08-23T05:47:15.505Z,22.09
2022-08-23T05:49:43.156Z,22.17
2022-08-23T05:52:14.987Z,22.27
2022-08-23T05:54:42.073Z,22.38
2022-08-23T05:57:10.574Z,22.33
2022-08-23T05:59:37.547Z,22.36
2022-08-23T06:02:04.630Z,22.40
2022-08-23T06:04:31.588Z,22.43
2022-08-23T06:06:59.035Z,22.48
2022-08-23T06:09:26.417Z,22.55
2022-08-23T06:11:53.405Z,22.62
2022-08-23T06:14:20.348Z,22.71
2022-08-23T06:16:52.574Z,22.80
2022-08-23T06:19:21.946Z,22.86
2022-08-23T06:21:49.606Z,22.96
2022-08-23T06:24:16.506Z,23.01
2022-08-23T06:26:45.373Z,23.09
2022-08-23T06:29:16.384Z,23.17
2022-08-23T06:31:49.303Z,23.21
2022-08-23T06:34:18.610Z,23.30
2022-08-23T06:36:51.525Z,23.37
2022-08-23T06:39:20.813Z,23.50
2022-08-23T06:41:50.358Z,23.61
2022-08-23T06:44:19.018Z,23.72
2022-08-23T06:46:48.752Z,23.80
2022-08-23T06:49:16.246Z,23.86
2022-08-23T06:51:46.293Z,23.95
2022-08-23T06:54:14.909Z,24.04
2022-08-23T06:56:43.630Z,24.12
2022-08-23T06:59:12.228Z,24.24
2022-08-23T07:01:46.939Z,24.40
2022-08-23T07:04:18.217Z,24.45
2022-08-23T07:06:45.966Z,24.55
2022-08-23T07:09:13.561Z,24.73
2022-08-23T07:11:41.236Z,24.88
2022-08-23T07:14:12.061Z,24.98
2022-08-23T07:16:41.946Z,25.03
2022-08-23T07:19:09.282Z,25.14
2022-08-23T07:21:37.325Z,25.29
2022-08-23T07:24:05.156Z,25.46
2022-08-23T07:26:32.735Z,25.62
2022-08-23T07:28:59.517Z,25.77
2022-08-23T07:31:30.774Z,25.91
2022-08-23T07:34:03.613Z,26.12
2022-08-23T07:36:32.976Z,26.16
2022-08-23T07:39:00.962Z,26.26
2022-08-23T07:41:32.832Z,26.42
2022-08-23T07:44:02.769Z,26.48
2022-08-23T07:46:31.314Z,26.50
2022-08-23T07:49:00.297Z,26.50
2022-08-23T07:51:29.575Z,26.52
2022-08-23T07:53:56.569Z,26.58
2022-08-23T07:56:23.657Z,26.63
2022-08-23T07:58:50.445Z,26.70
2022-08-23T08:01:24.650Z,26.79
2022-08-23T08:03:54.311Z,26.82
2022-08-23T08:06:26.007Z,26.96
2022-08-23T08:08:53.353Z,27.09
2022-08-23T08:11:24.265Z,27.16
2022-08-23T08:13:51.822Z,27.13
2022-08-23T08:16:31.242Z,27.21
2022-08-23T08:19:00.253Z,27.19
2022-08-23T08:21:28.824Z,27.27
2022-08-23T08:23:57.560Z,27.38
2022-08-23T08:26:26.019Z,27.49
2022-08-23T08:28:54.697Z,27.61
2022-08-23T08:31:21.849Z,27.72
2022-08-23T08:33:48.919Z,27.78
2022-08-23T08:36:35.333Z,27.95
2022-08-23T08:39:06.613Z,27.90
2022-08-23T08:41:39.039Z,27.96
2022-08-23T08:44:16.323Z,28.12
2022-08-23T08:46:50.234Z,28.21
2022-08-23T08:49:33.286Z,28.33
2022-08-23T08:52:08.646Z,28.40
2022-08-23T08:54:37.695Z,28.45
2022-08-23T08:57:07.882Z,28.55
2022-08-23T08:59:59.446Z,28.69
2022-08-23T09:02:32.603Z,28.63
2022-08-23T09:05:09.702Z,28.70
2022-08-23T09:07:46.079Z,28.74
2022-08-23T09:10:52.216Z,28.82
2022-08-23T09:13:55.702Z,28.91
2022-08-23T09:16:44.025Z,28.90
2022-08-23T09:19:11.229Z,28.84
2022-08-23T09:21:54.298Z,28.92
2022-08-23T09:24:21.245Z,28.92
2022-08-23T09:26:48.184Z,29.04
2022-08-23T09:29:18.808Z,29.17
2022-08-23T09:31:58.560Z,29.37
2022-08-23T09:34:31.161Z,29.55
2022-08-23T09:37:25.239Z,29.72
2022-08-23T09:40:13.505Z,29.83
2022-08-23T09:42:41.394Z,29.99
2022-08-23T09:45:35.453Z,30.25
2022-08-23T09:48:03.820Z,30.39
2022-08-23T09:50:42.293Z,30.66
2022-08-23T09:53:14.442Z,30.82
2022-08-23T09:55:54.446Z,30.97
2022-08-23T09:58:32.098Z,31.01
2022-08-23T10:01:19.179Z,30.99
2022-08-23T10:03:46.496Z,30.95
2022-08-23T10:06:31.054Z,30.98
2022-08-23T10:09:02.258Z,30.95
2022-08-23T10:11:32.599Z,31.13
2022-08-23T10:13:59.419Z,31.29
2022-08-23T10:16:40.063Z,31.48
2022-08-23T10:19:26.024Z,31.63
2022-08-23T10:22:18.258Z,32.14
2022-08-23T10:24:55.482Z,32.93
2022-08-23T10:27:59.760Z,33.37
2022-08-23T10:30:47.890Z,33.73
2022-08-23T10:33:35.112Z,33.66
2022-08-23T10:36:22.950Z,33.34
2022-08-23T10:38:57.636Z,33.00
2022-08-23T10:41:39.701Z,33.27
2022-08-23T10:44:54.207Z,33.73
2022-08-23T10:48:16.237Z,34.45
2022-08-23T10:51:22.690Z,35.20
2022-08-23T10:54:07.874Z,35.69
2022-08-23T10:56:36.461Z,35.80
2022-08-23T10:59:21.377Z,36.50
2022-08-23T11:01:53.793Z,36.25
2022-08-23T11:04:29.749Z,36.01
2022-08-23T11:06:59.259Z,35.66
2022-08-23T11:09:26.052Z,36.05
2022-08-23T11:12:11.412Z,36.41
2022-08-23T11:14:39.830Z,36.11
2022-08-23T11:17:23.596Z,36.24
2022-08-23T11:19:53.264Z,36.75
2022-08-23T11:22:23.888Z,36.62
2022-08-23T11:24:55.766Z,35.99
2022-08-23T11:27:28.701Z,36.00
2022-08-23T11:29:55.808Z,35.15
2022-08-23T11:32:42.998Z,35.00
2022-08-23T11:35:28.609Z,35.05
2022-08-23T11:38:05.920Z,34.59
2022-08-23T11:40:50.778Z,34.48
2022-08-23T11:43:29.809Z,33.90
2022-08-23T11:46:35.245Z,34.26
2022-08-23T11:49:20.586Z,35.17
2022-08-23T11:51:55.981Z,35.64
2022-08-23T11:54:56.189Z,35.48
2022-08-23T11:57:44.816Z,34.92
2022-08-23T12:00:55.780Z,34.54
2022-08-23T12:03:32.590Z,34.23
2022-08-23T12:06:08.440Z,34.16
2022-08-23T12:08:41.329Z,34.19
2022-08-23T12:11:10.662Z,34.02
2022-08-23T12:13:49.651Z,34.48
2022-08-23T12:16:17.720Z,34.65
2022-08-23T12:18:53.358Z,34.97
2022-08-23T12:21:43.087Z,35.71
2022-08-23T12:24:22.188Z,35.66
2022-08-23T12:27:24.141Z,35.83
2022-08-23T12:29:58.203Z,35.51
2022-08-23T12:33:04.858Z,35.46
2022-08-23T12:35:53.346Z,35.17
2022-08-23T12:38:58.470Z,35.32
2022-08-23T12:41:48.686Z,35.26
2022-08-23T12:44:19.358Z,35.17
2022-08-23T12:46:49.205Z,35.37
2022-08-23T12:49:29.476Z,35.61
2022-08-23T12:52:00.956Z,35.48
2022-08-23T12:54:43.651Z,36.02
2022-08-23T12:57:33.129Z,36.43
2022-08-23T13:00:18.467Z,36.66
2022-08-23T13:03:13.005Z,36.21
2022-08-23T13:05:45.985Z,35.40
2022-08-23T13:08:27.349Z,35.39
2022-08-23T13:11:07.674Z,35.25
2022-08-23T13:13:37.053Z,35.13
2022-08-23T13:16:26.871Z,35.98
2022-08-23T13:18:56.131Z,36.28
2022-08-23T13:21:23.033Z,36.85
2022-08-23T13:23:56.270Z,37.42
2022-08-23T13:26:43.736Z,37.96
2022-08-23T13:29:24.311Z,38.26
2022-08-23T13:32:03.445Z,38.43
2022-08-23T13:34:47.126Z,38.79
2022-08-23T13:37:21.305Z,38.87
2022-08-23T13:40:05.598Z,39.35
2022-08-23T13:43:01.294Z,39.79
2022-08-23T13:45:32.154Z,39.74
2022-08-23T13:48:10.740Z,40.33
2022-08-23T13:50:39.130Z,39.83
2022-08-23T13:53:15.674Z,38.81
2022-08-23T13:55:48.988Z,37.82
2022-08-23T13:58:31.084Z,37.10
2022-08-23T14:01:00.616Z,36.12
2022-08-23T14:03:29.199Z,35.60
2022-08-23T14:05:56.163Z,35.22
2022-08-23T14:08:23.583Z,35.23
2022-08-23T14:10:54.401Z,34.95
2022-08-23T14:13:28.291Z,34.90
2022-08-23T14:21:35.245Z,34.30
2022-08-23T14:24:02.281Z,34.25
2022-08-23T14:26:29.520Z,34.10
2022-08-23T14:28:56.476Z,33.76
2022-08-23T14:31:23.995Z,33.44
2022-08-23T14:33:50.853Z,33.43
2022-08-23T14:36:17.885Z,33.28
2022-08-23T14:38:44.693Z,32.97
2022-08-23T14:41:21.092Z,32.80
2022-08-23T14:43:52.845Z,32.70
2022-08-23T14:46:21.890Z,32.50
2022-08-23T14:48:48.782Z,32.42
2022-08-23T14:51:30.573Z,32.53
2022-08-23T14:53:57.368Z,32.40
2022-08-23T14:56:24.321Z,32.45
2022-08-23T14:58:53.222Z,32.34
2022-08-23T15:01:20.909Z,32.18
2022-08-23T15:03:49.449Z,31.96
2022-08-23T15:06:18.261Z,31.80
2022-08-23T15:08:45.672Z,31.64
2022-08-23T15:14:02.681Z,31.37
2022-08-23T15:16:30.033Z,31.30
2022-08-23T15:18:57.869Z,31.22
2022-08-23T15:21:24.755Z,31.11
2022-08-23T15:23:51.610Z,31.01
2022-08-23T15:26:24.530Z,30.95
2022-08-23T15:28:51.500Z,30.76
2022-08-23T15:31:19.901Z,30.68
2022-08-23T15:33:46.967Z,30.58
2022-08-23T15:36:16.066Z,30.52
2022-08-23T15:38:47.905Z,30.42
2022-08-23T15:41:16.585Z,30.37
2022-08-23T15:43:44.507Z,30.30
2022-08-23T15:46:22.825Z,30.31
2022-08-23T15:49:04.365Z,30.25
2022-08-23T15:51:32.126Z,30.11
2022-08-23T15:53:58.981Z,30.04
2022-08-23T15:56:34.016Z,30.04
2022-08-23T15:59:01.343Z,29.94
2022-08-23T16:01:33.588Z,29.89
2022-08-23T16:04:02.180Z,29.82
2022-08-23T16:06:32.206Z,29.76
2022-08-23T16:09:04.411Z,29.69
2022-08-23T16:11:31.894Z,29.61
2022-08-23T16:13:58.906Z,29.54
2022-08-23T16:16:31.071Z,29.50
2022-08-23T16:18:59.785Z,29.41
2022-08-23T16:21:29.413Z,29.38
2022-08-23T16:23:57.500Z,29.30
2022-08-23T16:26:34.763Z,29.28
2022-08-23T16:29:06.217Z,29.20
2022-08-23T16:31:39.144Z,29.13
2022-08-23T16:34:09.602Z,29.06
2022-08-23T16:36:37.048Z,28.97
2022-08-23T16:39:05.411Z,28.91
2022-08-23T16:41:32.448Z,28.82
2022-08-23T16:43:59.485Z,28.74
2022-08-23T16:46:27.433Z,28.66
2022-08-23T16:48:54.412Z,28.59
2022-08-23T16:51:22.268Z,28.54
2022-08-23T16:54:01.618Z,28.46
2022-08-23T16:56:34.155Z,28.41
2022-08-23T16:59:01.507Z,28.36
2022-08-23T17:01:29.847Z,28.31
2022-08-23T17:03:56.848Z,28.25
2022-08-23T17:06:23.657Z,28.21
2022-08-23T17:08:50.519Z,28.16
2022-08-23T17:11:19.640Z,28.11
2022-08-23T17:13:46.678Z,28.04
2022-08-23T17:16:13.663Z,27.97
2022-08-23T17:18:40.645Z,27.90
2022-08-23T17:21:09.133Z,27.81
2022-08-23T17:23:39.282Z,27.76
2022-08-23T17:26:09.573Z,27.70
2022-08-23T17:28:36.630Z,27.64
2022-08-23T17:31:03.980Z,27.58
2022-08-23T17:33:30.875Z,27.51
2022-08-23T17:35:57.937Z,27.44
2022-08-23T17:38:24.745Z,27.38
2022-08-23T17:40:52.331Z,27.33
2022-08-23T17:43:19.245Z,27.28
2022-08-23T17:45:48.792Z,27.23
2022-08-23T17:48:17.719Z,27.22
2022-08-23T17:50:46.179Z,27.18
2022-08-23T17:53:15.156Z,27.15
2022-08-23T17:55:43.015Z,27.12
2022-08-23T17:58:10.378Z,27.08
2022-08-23T18:00:39.353Z,27.05
2022-08-23T18:03:06.908Z,27.04
2022-08-23T18:05:34.906Z,27.00
2022-08-23T18:08:02.210Z,26.97
2022-08-23T18:10:30.161Z,26.93
2022-08-23T18:12:58.022Z,26.90
2022-08-23T18:15:25.318Z,26.85
2022-08-23T18:17:53.963Z,26.81
2022-08-23T18:20:29.068Z,26.77
2022-08-23T18:22:58.373Z,26.74
2022-08-23T18:25:26.648Z,26.68
2022-08-23T18:28:09.342Z,26.65
2022-08-23T18:30:38.937Z,26.64
2022-08-23T18:33:06.754Z,26.58
2022-08-23T18:35:34.685Z,26.55
2022-08-23T18:38:02.189Z,26.50
2022-08-23T18:40:29.939Z,26.47
2022-08-23T18:42:57.562Z,26.42
2022-08-23T18:45:24.481Z,26.36
2022-08-23T18:47:51.428Z,26.31
2022-08-23T18:50:18.706Z,26.27
2022-08-23T18:52:45.578Z,26.22
2022-08-23T18:55:12.416Z,26.19
2022-08-23T18:57:39.283Z,26.15
2022-08-23T19:00:09.675Z,26.13
2022-08-23T19:02:36.510Z,26.07
2022-08-23T19:05:04.078Z,26.05
2022-08-23T19:07:31.061Z,26.01
2022-08-23T19:09:57.982Z,25.95
2022-08-23T19:12:24.852Z,25.85
2022-08-23T19:14:54.890Z,25.75
2022-08-23T19:17:22.107Z,25.67
2022-08-23T19:19:49.135Z,25.60
2022-08-23T19:22:16.180Z,25.56
2022-08-23T19:24:43.322Z,25.51
2022-08-23T19:27:10.292Z,25.43
2022-08-23T19:29:37.237Z,25.43
2022-08-23T19:32:04.700Z,25.38
2022-08-23T19:34:31.717Z,25.29
2022-08-23T19:37:01.092Z,25.12
2022-08-23T19:39:29.486Z,24.96
2022-08-23T19:41:56.683Z,24.76
2022-08-23T19:44:23.773Z,24.58
2022-08-23T19:46:50.797Z,24.42
2022-08-23T19:49:18.015Z,24.39
2022-08-23T19:51:44.983Z,24.40
2022-08-23T19:54:13.177Z,24.40
2022-08-23T19:56:45.738Z,24.35
2022-08-23T19:59:17.294Z,24.27
2022-08-23T20:01:44.621Z,24.22
2022-08-23T20:04:12.002Z,24.17
2022-08-23T20:06:39.046Z,24.07
2022-08-23T20:09:07.137Z,23.92
2022-08-23T20:11:34.346Z,23.76
2022-08-23T20:14:01.461Z,23.67
2022-08-23T20:16:29.213Z,23.61
2022-08-23T20:18:56.094Z,23.71
2022-08-23T20:21:24.077Z,23.85
2022-08-23T20:24:06.669Z,24.02
2022-08-23T20:26:40.838Z,24.15
2022-08-23T20:29:13.685Z,24.25
2022-08-23T20:31:53.297Z,24.30
2022-08-23T20:34:20.700Z,24.27
2022-08-23T20:36:47.849Z,24.39
2022-08-23T20:39:19.276Z,24.48
2022-08-23T20:41:49.102Z,24.44
2022-08-23T20:44:16.160Z,24.43
2022-08-23T20:46:46.684Z,24.36
2022-08-23T20:49:14.741Z,24.28
2022-08-23T20:51:41.681Z,24.12
2022-08-23T20:54:11.305Z,24.19
2022-08-23T20:56:39.503Z,24.18
2022-08-23T20:59:07.951Z,24.24
2022-08-23T21:01:37.301Z,24.22
2022-08-23T21:04:07.141Z,24.23
2022-08-23T21:06:46.978Z,24.18
2022-08-23T21:09:19.258Z,24.24
2022-08-23T21:11:46.840Z,24.33
2022-08-23T21:14:15.408Z,24.30
2022-08-23T21:16:44.265Z,24.24
2022-08-23T21:19:11.544Z,24.17
2022-08-23T21:21:40.145Z,24.14
2022-08-23T21:24:08.272Z,24.08
2022-08-23T21:26:36.373Z,24.00
2022-08-23T21:29:04.296Z,23.99
2022-08-23T21:31:31.738Z,23.94
2022-08-23T21:34:00.537Z,23.89
2022-08-23T21:36:28.101Z,23.86
2022-08-23T21:38:54.918Z,23.82
2022-08-23T21:41:29.915Z,23.81
2022-08-23T21:43:56.833Z,23.66
2022-08-23T21:46:23.833Z,23.62
2022-08-23T21:48:50.721Z,23.54
2022-08-23T21:51:17.668Z,23.44
2022-08-23T21:53:44.589Z,23.38
2022-08-23T21:56:11.385Z,23.34
2022-08-23T21:58:38.250Z,23.22
2022-08-23T22:01:05.309Z,23.14
2022-08-23T22:03:32.708Z,23.02
2022-08-23T22:05:59.574Z,22.96
2022-08-23T22:08:26.361Z,22.86
2022-08-23T22:10:57.919Z,22.75
2022-08-23T22:13:28.846Z,22.65
2022-08-23T22:15:56.300Z,22.50
2022-08-23T22:18:23.382Z,22.41
2022-08-23T22:20:50.307Z,22.35
2022-08-23T22:23:17.408Z,22.32
2022-08-23T22:25:44.328Z,22.26
2022-08-23T22:28:11.226Z,22.17
2022-08-23T22:30:38.138Z,22.14
2022-08-23T22:33:05.124Z,22.10
2022-08-23T22:35:36.303Z,22.09
2022-08-23T22:38:13.819Z,22.00
2022-08-23T22:40:51.261Z,22.01
2022-08-23T22:43:19.341Z,21.95
2022-08-23T22:46:01.417Z,22.00
2022-08-23T22:48:31.575Z,21.97
2022-08-23T22:51:09.652Z,22.05
2022-08-23T22:53:39.284Z,22.01
2022-08-23T22:56:07.173Z,21.97
2022-08-23T22:58:34.668Z,21.93
2022-08-23T23:01:03.749Z,21.96
2022-08-23T23:03:36.740Z,21.95
2022-08-23T23:06:06.594Z,22.06
2022-08-23T23:08:33.486Z,22.23
2022-08-23T23:11:06.263Z,22.39
2022-08-23T23:13:34.483Z,22.53
2022-08-23T23:16:06.815Z,22.60
2022-08-23T23:18:34.418Z,22.62
2022-08-23T23:21:04.165Z,22.66
2022-08-23T23:23:32.798Z,22.64
2022-08-23T23:25:59.879Z,22.61
2022-08-23T23:28:27.569Z,22.53
2022-08-23T23:30:55.675Z,22.49
2022-08-23T23:33:23.322Z,22.45
2022-08-23T23:35:51.828Z,22.40
2022-08-23T23:38:18.930Z,22.30
2022-08-23T23:40:46.001Z,22.22
2022-08-23T23:43:13.357Z,22.12
2022-08-23T23:45:41.499Z,22.07
2022-08-23T23:48:09.572Z,22.02
2022-08-23T23:50:45.190Z,21.93
2022-08-23T23:53:14.599Z,21.95
2022-08-23T23:55:42.201Z,21.87
2022-08-23T23:58:09.204Z,21.70
